Time;durP1;ratioP1;P1;durP2;ratioP2;P2;SDS_P1;SDS_P2;PMS_P1;PMS_P2;Temp;Humidity;BMP_temperature;BMP_pressure;BME280_temperature;BME280_humidity;BME280_pressure;Samples;Min_cycle;Max_cycle;Signal;HPM_P1;HPM_P2
2022/08/09 00:00:00;;;;;;;1.85;1.20;;;;;;;22.56;65.99;100959.41;5005577;28;20030;-62
2022/08/09 00:02:26;;;;;;;2.47;1.00;;;;;;;22.56;66.41;100962.06;5010501;28;20026;-62
2022/08/09 00:04:51;;;;;;;5.47;1.20;;;;;;;22.55;66.21;100964.94;5006381;28;20396;-62
2022/08/09 00:07:17;;;;;;;1.30;0.88;;;;;;;22.50;65.83;100962.91;5007202;28;20504;-62
2022/08/09 00:09:42;;;;;;;3.78;0.80;;;;;;;22.46;66.52;100967.00;5004410;28;20126;-59
2022/08/09 00:12:09;;;;;;;3.13;1.10;;;;;;;22.48;65.81;100972.91;4990926;28;20030;-61
2022/08/09 00:14:35;;;;;;;1.65;0.80;;;;;;;22.56;65.78;100978.00;4990991;28;20026;-60
2022/08/09 00:17:01;;;;;;;3.38;0.90;;;;;;;22.64;66.85;100977.75;5005854;28;20041;-60
2022/08/09 00:19:27;;;;;;;1.95;1.20;;;;;;;22.64;66.62;100974.28;5007783;28;20381;-62
2022/08/09 00:21:52;;;;;;;2.22;0.90;;;;;;;22.62;66.36;100963.06;5009352;28;20066;-60
2022/08/09 00:24:18;;;;;;;1.38;0.88;;;;;;;22.58;66.81;100962.66;5009561;28;20049;-59
2022/08/09 00:26:44;;;;;;;2.35;0.80;;;;;;;22.56;66.54;100962.06;5007693;28;20370;-60
2022/08/09 00:29:09;;;;;;;3.05;0.85;;;;;;;22.59;65.27;100964.31;5009228;28;20034;-60
2022/08/09 00:31:35;;;;;;;1.40;0.90;;;;;;;22.64;64.64;100967.13;5010246;28;20029;-60
2022/08/09 00:34:00;;;;;;;2.60;0.95;;;;;;;22.67;65.27;100965.91;5007747;28;20121;-60
2022/08/09 00:36:26;;;;;;;3.83;1.20;;;;;;;22.66;66.09;100966.94;5008441;28;20030;-62
2022/08/09 00:38:51;;;;;;;1.90;1.20;;;;;;;22.64;65.64;100975.09;5009141;28;20030;-62
2022/08/09 00:41:21;;;;;;;2.72;0.88;;;;;;;22.69;65.15;100969.94;4992081;28;20022;-62
2022/08/09 00:43:49;;;;;;;2.22;0.90;;;;;;;22.63;66.22;100967.34;4992104;28;20040;-61
2022/08/09 00:46:16;;;;;;;2.22;0.93;;;;;;;22.51;66.55;100948.59;5008236;28;20048;-59
2022/08/09 00:48:41;;;;;;;2.13;0.88;;;;;;;22.47;66.05;100968.63;5007411;28;20120;-58
2022/08/09 00:51:07;;;;;;;3.05;0.93;;;;;;;22.60;65.47;100963.28;5006970;28;20171;-62
2022/08/09 00:53:37;;;;;;;3.15;0.95;;;;;;;22.71;62.79;100967.91;4987760;28;20087;-60
2022/08/09 00:56:04;;;;;;;1.70;0.80;;;;;;;22.88;61.81;100962.13;5008499;28;20038;-63
2022/08/09 00:58:30;;;;;;;3.70;1.10;;;;;;;23.03;60.68;100965.31;5004998;28;20026;-60
2022/08/09 01:00:56;;;;;;;0.90;0.70;;;;;;;23.02;60.67;100961.03;4989681;28;20092;-62
2022/08/09 01:03:45;;;;;;;3.25;0.82;;;;;;;22.96;61.19;100965.34;5007488;28;20053;-59
2022/08/09 01:06:16;;;;;;;2.30;0.80;;;;;;;22.91;61.51;100957.22;5005100;28;20087;-60
2022/08/09 01:09:01;;;;;;;1.58;0.68;;;;;;;23.17;57.20;100958.84;5003729;28;20076;-62
2022/08/09 01:11:45;;;;;;;3.25;0.70;;;;;;;23.73;54.52;100955.38;5009606;28;20470;-62
2022/08/09 01:14:20;;;;;;;1.13;0.47;;;;;;;24.11;52.49;100956.00;5008245;28;20192;-61
2022/08/09 01:16:50;;;;;;;1.33;0.70;;;;;;;24.20;53.51;100953.03;4988451;28;20489;-62
2022/08/09 01:19:37;;;;;;;8.75;0.90;;;;;;;24.23;51.92;100945.41;4998515;28;20103;-59
2022/08/09 01:22:12;;;;;;;2.13;0.50;;;;;;;24.30;52.34;100956.84;4991519;28;20033;-61
2022/08/09 01:25:09;;;;;;;1.33;0.70;;;;;;;24.31;51.56;100949.66;5007539;28;20140;-60
2022/08/09 01:27:37;;;;;;;2.15;0.77;;;;;;;24.27;52.40;100951.16;5004544;28;20033;-60
2022/08/09 01:30:06;;;;;;;1.17;0.60;;;;;;;24.27;52.56;100951.16;5006557;28;20017;-60
2022/08/09 01:32:37;;;;;;;2.08;0.80;;;;;;;24.27;53.03;100956.47;5006438;28;20048;-63
2022/08/09 01:35:09;;;;;;;1.83;0.95;;;;;;;24.19;53.82;100952.22;4987950;28;20378;-59
2022/08/09 01:37:37;;;;;;;2.15;0.50;;;;;;;24.21;53.31;100954.66;5007549;28;20038;-63
2022/08/09 01:40:06;;;;;;;1.70;0.75;;;;;;;24.24;52.98;100951.56;5007082;28;20457;-60
2022/08/09 01:42:34;;;;;;;3.08;0.60;;;;;;;24.27;53.01;100953.81;5007077;28;20477;-60
2022/08/09 01:44:59;;;;;;;1.40;0.70;;;;;;;24.29;52.79;100960.53;4997597;28;20033;-59
2022/08/09 01:47:26;;;;;;;2.38;0.60;;;;;;;24.31;52.96;100963.78;5006128;28;20497;-59
2022/08/09 01:49:54;;;;;;;1.13;0.60;;;;;;;24.23;53.40;100976.56;5006712;28;20021;-60
2022/08/09 01:52:22;;;;;;;1.50;0.57;;;;;;;24.14;54.77;100968.84;5007899;28;20316;-62
2022/08/09 01:54:56;;;;;;;2.47;0.60;;;;;;;23.95;55.31;100975.22;5007078;28;20152;-59
2022/08/09 01:57:36;;;;;;;2.78;0.60;;;;;;;23.72;56.04;100980.34;5006006;28;20030;-62
2022/08/09 02:00:05;;;;;;;2.42;0.70;;;;;;;23.49;57.35;100980.94;5006816;28;20034;-58
2022/08/09 02:02:34;;;;;;;2.00;0.60;;;;;;;23.29;58.24;100981.06;5006572;28;20038;-61
2022/08/09 02:05:05;;;;;;;3.42;0.75;;;;;;;23.10;59.43;100985.50;5006222;28;20113;-62
2022/08/09 02:07:36;;;;;;;1.88;0.68;;;;;;;22.98;60.25;100978.44;5007684;28;20033;-60
2022/08/09 02:10:08;;;;;;;1.00;0.80;;;;;;;22.80;61.30;100987.91;5008400;28;20069;-62
2022/08/09 02:12:35;;;;;;;1.55;0.80;;;;;;;22.73;61.77;100981.78;5007410;28;20534;-61
2022/08/09 02:15:04;;;;;;;1.05;0.63;;;;;;;22.63;62.40;100976.13;5003809;28;20368;-60
2022/08/09 02:17:31;;;;;;;1.90;0.68;;;;;;;22.46;63.10;100982.94;5006507;28;20030;-61
2022/08/09 02:19:57;;;;;;;1.73;0.47;;;;;;;22.43;62.90;100980.69;5006758;28;20022;-62
2022/08/09 02:23:04;;;;;;;2.50;0.90;;;;;;;22.37;63.37;100984.19;5006391;28;20030;-61
2022/08/09 02:25:35;;;;;;;1.70;0.73;;;;;;;22.31;63.05;100975.22;4990652;28;20634;-62
2022/08/09 02:28:33;;;;;;;1.15;0.80;;;;;;;22.20;64.38;100975.88;5007748;28;20069;-62
2022/08/09 02:31:15;;;;;;;1.25;0.40;;;;;;;22.13;64.25;100965.28;4976943;28;20056;-60
2022/08/09 02:33:44;;;;;;;1.35;0.70;;;;;;;22.03;65.04;100970.19;5004710;28;20112;-61
2022/08/09 02:36:28;;;;;;;1.25;0.60;;;;;;;21.92;65.29;100957.53;5009677;28;20609;-61
2022/08/09 02:38:57;;;;;;;1.35;0.60;;;;;;;21.85;64.10;100968.16;4992539;28;20034;-59
2022/08/09 02:41:44;;;;;;;1.73;0.85;;;;;;;22.06;62.73;100961.81;5011902;28;20072;-62
2022/08/09 02:44:19;;;;;;;3.42;0.60;;;;;;;22.08;63.18;100966.94;4991580;28;20073;-59
2022/08/09 02:46:51;;;;;;;1.00;0.75;;;;;;;22.01;64.01;100960.78;4987375;28;20029;-59
2022/08/09 02:49:18;;;;;;;3.78;0.85;;;;;;;21.97;64.95;100963.03;5008435;28;20499;-62
2022/08/09 02:51:48;;;;;;;0.88;0.70;;;;;;;21.89;65.06;100963.25;4991312;28;20034;-61
2022/08/09 02:54:16;;;;;;;1.58;0.60;;;;;;;21.87;65.23;100965.28;5010374;28;20122;-61
2022/08/09 02:56:46;;;;;;;4.03;0.70;;;;;;;21.81;66.36;100956.31;5008341;28;20034;-61
2022/08/09 02:59:13;;;;;;;3.47;0.50;;;;;;;21.73;66.26;100953.91;5009939;28;20410;-62
2022/08/09 03:01:41;;;;;;;1.00;0.70;;;;;;;21.68;66.30;100953.69;4993345;28;20038;-62
2022/08/09 03:04:08;;;;;;;2.88;0.50;;;;;;;21.66;65.59;100949.63;5010244;28;20030;-60
2022/08/09 03:06:36;;;;;;;1.20;0.68;;;;;;;21.61;66.36;100952.06;5010286;28;20068;-59
2022/08/09 03:09:03;;;;;;;1.08;0.70;;;;;;;21.56;66.20;100951.88;5011215;28;20044;-60
2022/08/09 03:11:30;;;;;;;2.08;0.50;;;;;;;21.51;66.71;100950.66;5010418;28;20523;-59
2022/08/09 03:13:56;;;;;;;1.30;0.88;;;;;;;21.50;67.11;100954.31;5010090;28;20030;-60
2022/08/09 03:16:23;;;;;;;2.30;0.80;;;;;;;21.47;67.50;100944.13;5008823;28;20074;-60
2022/08/09 03:18:49;;;;;;;1.83;0.50;;;;;;;21.39;67.15;100946.97;5010669;28;20520;-59
2022/08/09 03:21:18;;;;;;;3.10;0.70;;;;;;;21.30;66.75;100950.00;5009326;28;20038;-60
2022/08/09 03:23:45;;;;;;;1.23;0.98;;;;;;;21.29;66.63;100941.25;5008752;28;20107;-60
2022/08/09 03:26:14;;;;;;;2.10;0.57;;;;;;;21.27;66.10;100940.63;4988660;28;20034;-60
2022/08/09 03:28:41;;;;;;;3.15;0.60;;;;;;;21.39;65.56;100931.06;5009905;28;20132;-61
2022/08/09 03:31:07;;;;;;;1.05;0.50;;;;;;;21.46;65.18;100947.78;5008945;28;20042;-60
2022/08/09 03:33:35;;;;;;;1.15;0.50;;;;;;;21.55;65.24;100940.44;5009168;28;20098;-60
2022/08/09 03:36:01;;;;;;;1.98;0.60;;;;;;;21.55;65.51;100947.59;5006566;28;20184;-60
2022/08/09 03:38:27;;;;;;;2.03;0.70;;;;;;;21.48;65.99;100950.22;5009058;28;20033;-60
2022/08/09 03:40:52;;;;;;;1.40;0.63;;;;;;;21.45;66.59;100945.34;5010323;28;20482;-58
2022/08/09 03:43:18;;;;;;;3.13;0.60;;;;;;;21.43;66.51;100945.53;5007304;28;20084;-60
2022/08/09 03:45:43;;;;;;;1.17;0.73;;;;;;;21.48;66.14;100945.75;5010229;28;20033;-59
2022/08/09 03:48:09;;;;;;;0.75;0.40;;;;;;;21.56;63.88;100946.56;5008739;28;20034;-60
2022/08/09 03:50:36;;;;;;;1.45;0.50;;;;;;;22.10;59.70;100944.47;5008757;28;20030;-61
2022/08/09 03:53:04;;;;;;;1.02;0.57;;;;;;;22.58;56.67;100952.03;5008132;28;20569;-60
2022/08/09 03:55:30;;;;;;;1.90;0.50;;;;;;;22.48;58.22;100957.81;5009227;28;20501;-59
2022/08/09 03:57:56;;;;;;;1.67;0.70;;;;;;;22.33;59.16;100953.78;5007550;28;20444;-61
2022/08/09 04:00:22;;;;;;;1.08;0.52;;;;;;;22.23;60.33;100956.84;5008556;28;20129;-62
2022/08/09 04:02:48;;;;;;;1.15;0.30;;;;;;;22.10;60.72;100955.09;5009716;28;20048;-61
2022/08/09 04:05:14;;;;;;;1.00;0.40;;;;;;;22.02;61.91;100955.31;5006167;28;20097;-58
2022/08/09 04:07:40;;;;;;;1.55;0.50;;;;;;;21.93;62.23;100964.47;5006935;28;20037;-60
2022/08/09 04:10:06;;;;;;;1.35;0.50;;;;;;;21.80;62.35;100959.19;5010110;28;20549;-59
2022/08/09 04:12:49;;;;;;;1.05;0.40;;;;;;;21.67;63.26;100953.91;5006478;28;20117;-60
2022/08/09 04:15:16;;;;;;;3.40;0.85;;;;;;;21.60;63.85;100953.91;5009503;28;20041;-59
2022/08/09 04:17:43;;;;;;;1.38;0.40;;;;;;;21.52;63.60;100957.56;5009872;28;20030;-60
2022/08/09 04:20:10;;;;;;;0.77;0.40;;;;;;;21.67;62.59;100964.50;5007382;28;20120;-63
2022/08/09 04:22:37;;;;;;;1.67;0.40;;;;;;;21.66;62.94;100954.94;5009198;28;20022;-62
2022/08/09 04:25:04;;;;;;;2.03;0.40;;;;;;;21.61;63.54;100952.06;4988851;28;20085;-60
2022/08/09 04:27:29;;;;;;;0.82;0.40;;;;;;;21.62;63.39;100965.13;5005963;28;20045;-62
2022/08/09 04:29:55;;;;;;;2.70;0.40;;;;;;;21.76;61.65;100963.25;5009154;28;20108;-61
2022/08/09 04:32:21;;;;;;;2.58;0.40;;;;;;;21.87;61.21;100959.97;5009617;28;20137;-59
2022/08/09 04:34:46;;;;;;;1.98;0.40;;;;;;;21.82;62.42;100957.94;5007378;28;20354;-61
2022/08/09 04:37:12;;;;;;;0.90;0.50;;;;;;;21.78;63.81;100961.22;5006681;28;20033;-59
2022/08/09 04:39:37;;;;;;;2.42;0.40;;;;;;;21.72;64.35;100965.53;5008211;28;20088;-60
2022/08/09 04:42:03;;;;;;;3.15;0.50;;;;;;;21.69;64.46;100965.94;5009371;28;20029;-62
2022/08/09 04:44:28;;;;;;;2.00;0.43;;;;;;;21.72;64.86;100970.03;5007690;28;20030;-60
2022/08/09 04:46:54;;;;;;;2.15;0.40;;;;;;;21.77;65.66;100972.84;5003755;28;20549;-62
2022/08/09 04:49:20;;;;;;;2.17;0.47;;;;;;;21.76;64.14;100973.88;5009486;28;20114;-62
2022/08/09 04:51:45;;;;;;;1.75;0.50;;;;;;;21.81;64.35;100971.41;5007365;28;20046;-59
2022/08/09 04:54:11;;;;;;;1.98;0.52;;;;;;;21.83;65.09;100969.38;5007362;28;20038;-63
2022/08/09 04:56:36;;;;;;;4.20;0.45;;;;;;;21.85;65.71;100972.63;5003818;28;20065;-59
2022/08/09 04:59:02;;;;;;;2.47;0.60;;;;;;;21.85;64.72;100967.34;5008812;28;20068;-61
2022/08/09 05:01:28;;;;;;;1.77;0.30;;;;;;;21.95;62.71;100967.72;5006190;28;20030;-62
2022/08/09 05:03:53;;;;;;;1.95;0.50;;;;;;;22.13;61.09;100967.94;4989967;28;20030;-60
2022/08/09 05:06:18;;;;;;;1.27;0.40;;;;;;;22.31;61.10;100969.91;5006307;28;20462;-61
2022/08/09 05:08:44;;;;;;;1.63;0.40;;;;;;;22.39;62.24;100969.69;5008373;28;20033;-62
2022/08/09 05:11:10;;;;;;;1.90;0.55;;;;;;;22.35;62.67;100972.97;5009753;28;20317;-59
2022/08/09 05:13:36;;;;;;;2.97;0.40;;;;;;;22.28;63.87;100978.28;5003244;28;20030;-61
2022/08/09 05:16:01;;;;;;;7.57;0.50;;;;;;;22.30;62.49;100984.19;5008182;28;20470;-60
2022/08/09 05:18:32;;;;;;;1.05;0.40;;;;;;;22.38;61.88;100980.50;5006799;28;20049;-62
2022/08/09 05:20:58;;;;;;;4.18;0.50;;;;;;;22.41;63.54;100982.75;4982163;28;20049;-60
2022/08/09 05:23:24;;;;;;;3.53;0.40;;;;;;;22.41;63.24;100977.44;5008478;28;20466;-59
2022/08/09 05:25:50;;;;;;;1.60;0.43;;;;;;;22.52;61.98;100976.78;5006858;28;20145;-60
2022/08/09 05:28:16;;;;;;;1.17;0.43;;;;;;;22.58;61.94;100985.75;5006879;28;20505;-60
2022/08/09 05:30:43;;;;;;;2.53;0.30;;;;;;;22.72;60.13;100987.31;4989480;28;20148;-61
2022/08/09 05:33:08;;;;;;;0.60;0.30;;;;;;;22.80;59.86;100989.75;5006256;28;20034;-61
2022/08/09 05:35:34;;;;;;;1.38;0.43;;;;;;;22.96;61.24;100988.44;5007242;28;20766;-62
2022/08/09 05:38:00;;;;;;;3.35;0.30;;;;;;;23.11;61.80;100983.66;5008437;28;20034;-61
2022/08/09 05:40:27;;;;;;;4.40;0.40;;;;;;;23.20;60.99;100987.66;5005897;28;20022;-59
2022/08/09 05:42:56;;;;;;;2.55;0.30;;;;;;;23.12;60.69;100985.31;4988886;28;20489;-61
2022/08/09 05:45:22;;;;;;;1.90;0.32;;;;;;;23.19;60.06;100980.72;5007327;28;20495;-61
2022/08/09 05:47:47;;;;;;;2.95;0.30;;;;;;;23.22;60.59;100988.28;5007068;28;20037;-63
2022/08/09 05:50:13;;;;;;;1.38;0.40;;;;;;;23.29;60.22;100989.03;5007582;28;20042;-61
2022/08/09 05:52:39;;;;;;;0.82;0.30;;;;;;;23.36;58.87;100992.47;5005825;28;20133;-60
2022/08/09 05:55:06;;;;;;;1.17;0.30;;;;;;;23.53;58.71;100991.94;5005270;28;20040;-62
2022/08/09 05:57:33;;;;;;;3.60;0.40;;;;;;;23.61;58.64;100986.41;5006213;28;20034;-62
2022/08/09 05:59:59;;;;;;;0.88;0.22;;;;;;;23.71;56.75;100987.50;5006725;28;20409;-60
2022/08/09 06:02:25;;;;;;;2.03;0.30;;;;;;;23.83;56.81;100987.63;4989081;28;20034;-62
2022/08/09 06:04:50;;;;;;;2.15;0.30;;;;;;;23.83;55.91;100983.09;5007639;28;20050;-62
2022/08/09 06:07:16;;;;;;;1.73;0.40;;;;;;;23.93;55.31;100979.94;5006217;28;20121;-62
2022/08/09 06:09:41;;;;;;;1.05;0.35;;;;;;;23.93;55.04;100985.28;5006054;28;20153;-61
2022/08/09 06:12:07;;;;;;;0.90;0.40;;;;;;;24.01;54.97;100969.03;5006375;28;20033;-60
2022/08/09 06:14:33;;;;;;;1.83;0.30;;;;;;;24.04;54.87;100968.59;5004368;28;20443;-61
2022/08/09 06:16:58;;;;;;;2.40;0.30;;;;;;;24.09;54.27;100967.91;5003298;28;20048;-61
2022/08/09 06:19:24;;;;;;;2.17;0.30;;;;;;;24.14;53.73;100971.53;5007314;28;20493;-59
2022/08/09 06:21:50;;;;;;;1.27;0.30;;;;;;;24.31;52.79;100965.66;5005872;28;20041;-59
2022/08/09 06:24:15;;;;;;;1.52;0.30;;;;;;;24.39;52.55;100966.16;5005614;28;20132;-56
2022/08/09 06:26:41;;;;;;;1.02;0.30;;;;;;;24.55;52.56;100961.28;5004641;28;20438;-58
2022/08/09 06:29:08;;;;;;;0.90;0.30;;;;;;;24.61;51.77;100969.16;5004339;28;20030;-60
2022/08/09 06:31:35;;;;;;;1.75;0.35;;;;;;;24.65;51.57;100961.53;5006366;28;20033;-56
2022/08/09 06:34:02;;;;;;;1.67;0.30;;;;;;;24.77;51.53;100963.19;5004946;28;20033;-61
2022/08/09 06:36:27;;;;;;;1.70;0.30;;;;;;;24.86;51.90;100962.88;5006750;28;20084;-59
2022/08/09 06:38:53;;;;;;;1.15;0.40;;;;;;;24.96;50.93;100963.19;5007780;28;20038;-60
2022/08/09 06:41:19;;;;;;;2.55;0.35;;;;;;;25.05;50.71;100961.81;5006466;28;20040;-60
2022/08/09 06:43:46;;;;;;;0.82;0.30;;;;;;;25.11;50.54;100963.56;5003045;28;20041;-59
2022/08/09 06:46:11;;;;;;;1.10;0.20;;;;;;;25.06;49.66;100960.75;5007186;28;20034;-56
2022/08/09 06:48:37;;;;;;;1.60;0.30;;;;;;;25.08;50.41;100961.34;5004517;28;20501;-59
2022/08/09 06:51:04;;;;;;;0.95;0.30;;;;;;;25.20;50.23;100959.53;5006284;28;20033;-61
2022/08/09 06:53:29;;;;;;;3.20;0.20;;;;;;;25.30;49.35;100970.47;4988850;28;20036;-60
2022/08/09 06:55:55;;;;;;;1.42;0.30;;;;;;;25.35;49.09;100970.59;5004964;28;20117;-54
2022/08/09 06:58:20;;;;;;;3.03;0.40;;;;;;;25.39;48.77;100969.09;5003934;28;20030;-55
2022/08/09 07:00:46;;;;;;;4.68;0.40;;;;;;;25.46;48.80;100967.13;4999683;28;20394;-56
2022/08/09 07:03:11;;;;;;;4.57;0.50;;;;;;;25.50;48.53;100969.34;4999087;28;20033;-60
2022/08/09 07:05:37;;;;;;;1.88;0.38;;;;;;;25.58;48.37;100972.44;5002862;28;20026;-59
2022/08/09 07:08:03;;;;;;;1.58;0.30;;;;;;;25.63;48.25;100977.09;5004421;28;20509;-57
2022/08/09 07:10:28;;;;;;;1.42;0.30;;;;;;;25.74;48.37;100962.97;5000062;28;20053;-58
2022/08/09 07:12:54;;;;;;;1.48;0.30;;;;;;;25.79;47.73;100971.09;5005986;28;20037;-61
2022/08/09 07:15:19;;;;;;;1.88;0.30;;;;;;;25.78;46.52;100975.63;4982157;28;20596;-61
2022/08/09 07:17:45;;;;;;;2.58;0.30;;;;;;;25.90;47.22;100967.63;4987481;28;20037;-55
2022/08/09 07:20:10;;;;;;;2.30;0.50;;;;;;;25.94;46.99;100976.78;5009381;28;20026;-55
2022/08/09 07:22:36;;;;;;;2.20;0.30;;;;;;;25.92;46.71;100964.72;4983242;28;20029;-60
2022/08/09 07:25:03;;;;;;;5.50;0.55;;;;;;;26.03;47.14;100971.88;5009169;28;20065;-58
2022/08/09 07:27:28;;;;;;;1.67;0.30;;;;;;;26.13;46.69;100977.44;5003759;28;20160;-55
2022/08/09 07:29:54;;;;;;;1.27;0.20;;;;;;;26.10;45.99;100976.06;5010201;28;20125;-59
2022/08/09 07:32:20;;;;;;;2.85;0.30;;;;;;;26.06;45.90;100974.09;5007544;28;20030;-58
2022/08/09 07:34:46;;;;;;;2.88;0.40;;;;;;;26.01;46.05;100969.44;5008920;28;20064;-59
2022/08/09 07:37:11;;;;;;;3.53;0.22;;;;;;;26.21;46.14;100969.06;5004837;28;20115;-59
2022/08/09 07:39:37;;;;;;;2.25;0.30;;;;;;;26.31;45.73;100968.50;5010077;28;20116;-59
2022/08/09 07:42:02;;;;;;;3.28;0.40;;;;;;;26.38;45.76;100972.66;5005950;28;20108;-60
2022/08/09 07:44:28;;;;;;;3.80;0.43;;;;;;;26.50;45.96;100974.47;4992372;28;20100;-60
2022/08/09 07:46:54;;;;;;;1.63;0.30;;;;;;;26.52;45.87;100969.72;5008675;28;20034;-60
2022/08/09 07:49:20;;;;;;;1.30;0.38;;;;;;;26.70;46.05;100973.03;5004528;28;20050;-61
2022/08/09 07:51:46;;;;;;;0.82;0.30;;;;;;;26.82;45.11;100972.16;5009090;28;20080;-60
2022/08/09 07:54:11;;;;;;;1.65;0.28;;;;;;;26.97;45.00;100977.78;5006611;28;20112;-59
2022/08/09 07:56:37;;;;;;;2.67;0.45;;;;;;;27.06;45.03;100973.69;5008902;28;20176;-60
2022/08/09 07:59:03;;;;;;;4.47;0.32;;;;;;;26.95;43.75;100969.97;5004259;28;20091;-59
2022/08/09 08:01:28;;;;;;;1.95;0.30;;;;;;;26.93;43.30;100973.97;4990147;28;20038;-60
2022/08/09 08:03:54;;;;;;;2.90;0.40;;;;;;;27.04;43.22;100973.91;5010476;28;20022;-62
2022/08/09 08:06:20;;;;;;;0.82;0.30;;;;;;;27.29;43.12;100978.91;5008848;28;20559;-59
2022/08/09 08:08:46;;;;;;;4.03;0.30;;;;;;;27.44;42.68;100973.78;5008816;28;20026;-60
2022/08/09 08:11:12;;;;;;;1.15;0.40;;;;;;;27.57;43.21;100979.84;5007093;28;20071;-60
2022/08/09 08:13:38;;;;;;;2.22;0.40;;;;;;;27.56;42.47;100972.88;5007820;28;20424;-61
2022/08/09 08:16:04;;;;;;;1.27;0.30;;;;;;;27.76;42.48;100975.91;5008151;28;20022;-59
2022/08/09 08:18:30;;;;;;;1.83;0.30;;;;;;;27.87;42.94;100964.28;5002919;28;20037;-60
2022/08/09 08:20:55;;;;;;;1.58;0.30;;;;;;;27.80;41.20;100966.34;5007524;28;20375;-60
2022/08/09 08:23:21;;;;;;;1.63;0.40;;;;;;;27.80;41.53;100970.88;5005719;28;20030;-60
2022/08/09 08:25:47;;;;;;;1.25;0.38;;;;;;;27.74;41.35;100965.44;5005546;28;20053;-60
2022/08/09 08:28:14;;;;;;;2.33;0.30;;;;;;;27.88;40.94;100968.59;5004005;28;20037;-60
2022/08/09 08:30:40;;;;;;;1.08;0.30;;;;;;;28.17;40.37;100965.75;4995384;28;20463;-61
2022/08/09 08:33:06;;;;;;;3.03;0.40;;;;;;;28.25;41.02;100962.66;5004499;28;20169;-59
2022/08/09 08:35:31;;;;;;;2.42;0.60;;;;;;;28.49;41.10;100957.84;5000865;28;20042;-60
2022/08/09 08:37:57;;;;;;;1.42;0.30;;;;;;;28.42;41.36;100963.38;5003528;28;20026;-60
2022/08/09 08:40:23;;;;;;;3.53;0.40;;;;;;;28.22;40.71;100963.97;5004148;28;20470;-60
2022/08/09 08:42:48;;;;;;;1.85;0.40;;;;;;;28.35;41.18;100960.09;5009537;28;20116;-60
2022/08/09 08:45:21;;;;;;;1.55;0.30;;;;;;;28.54;40.75;100964.06;5008806;28;20471;-60
2022/08/09 08:47:46;;;;;;;1.52;0.30;;;;;;;28.68;41.00;100965.28;5005313;28;20037;-62
2022/08/09 08:50:15;;;;;;;0.80;0.30;;;;;;;28.66;41.15;100954.00;5007819;28;20030;-59
2022/08/09 08:52:41;;;;;;;2.20;0.68;;;;;;;28.76;39.39;100958.69;5007914;28;20026;-60
2022/08/09 08:55:07;;;;;;;1.27;0.30;;;;;;;28.42;37.19;100966.88;4991609;28;20408;-63
2022/08/09 08:57:33;;;;;;;1.13;0.20;;;;;;;28.40;37.64;100952.09;5002480;28;20112;-60
2022/08/09 08:59:58;;;;;;;4.55;0.32;;;;;;;28.16;38.42;100958.75;5001318;28;20431;-61
2022/08/09 09:02:27;;;;;;;7.93;0.63;;;;;;;28.08;37.99;100947.41;5007660;28;20040;-61
2022/08/09 09:04:57;;;;;;;2.25;0.40;;;;;;;28.31;37.00;100942.91;4999828;28;20458;-61
2022/08/09 09:07:25;;;;;;;1.83;0.20;;;;;;;28.47;37.36;100949.22;5005603;28;20461;-59
2022/08/09 09:09:52;;;;;;;0.88;0.45;;;;;;;28.58;36.31;100941.06;4999222;28;20383;-62
2022/08/09 09:12:27;;;;;;;1.50;0.30;;;;;;;28.57;36.03;100947.47;5001796;28;20057;-60
2022/08/09 09:14:53;;;;;;;4.22;0.35;;;;;;;28.47;36.09;100933.97;5000514;28;20022;-61
2022/08/09 09:17:19;;;;;;;3.85;0.95;;;;;;;28.35;37.05;100947.53;5000586;28;20057;-61
2022/08/09 09:19:45;;;;;;;1.13;0.30;;;;;;;28.41;36.60;100933.09;4990181;28;20026;-61
2022/08/09 09:22:16;;;;;;;5.05;0.60;;;;;;;28.56;36.91;100937.00;5010114;28;20034;-62
2022/08/09 09:24:54;;;;;;;1.73;0.45;;;;;;;28.82;36.95;100943.47;5007493;28;20179;-61
2022/08/09 09:27:26;;;;;;;0.85;0.30;;;;;;;28.72;36.64;100936.09;5010741;28;20389;-61
2022/08/09 09:29:53;;;;;;;2.20;0.30;;;;;;;28.79;38.23;100941.28;4997157;28;20045;-60
2022/08/09 09:32:21;;;;;;;2.03;0.40;;;;;;;28.95;37.87;100945.72;5016141;28;20041;-61
2022/08/09 09:35:03;;;;;;;2.80;0.40;;;;;;;28.83;35.40;100947.78;5009162;28;20487;-60
2022/08/09 09:37:29;;;;;;;1.88;0.30;;;;;;;28.74;36.23;100948.19;5004225;28;20434;-61
2022/08/09 09:39:55;;;;;;;1.73;0.30;;;;;;;28.59;36.41;100941.88;5009031;28;20042;-60
2022/08/09 09:42:24;;;;;;;1.02;0.30;;;;;;;28.41;36.21;100937.66;5003731;28;20034;-60
2022/08/09 09:44:56;;;;;;;1.40;0.32;;;;;;;28.50;35.92;100932.66;5005775;28;20125;-61
2022/08/09 09:47:21;;;;;;;1.63;0.30;;;;;;;28.63;36.68;100940.31;4983299;28;20022;-62
2022/08/09 09:49:52;;;;;;;1.67;0.57;;;;;;;28.77;36.91;100952.25;5005762;28;20036;-60
2022/08/09 09:52:18;;;;;;;0.77;0.30;;;;;;;28.72;35.57;100961.06;5008249;28;20394;-60
2022/08/09 09:54:47;;;;;;;0.93;0.30;;;;;;;28.49;36.13;100945.25;5007739;28;20132;-60
2022/08/09 09:57:23;;;;;;;0.70;0.30;;;;;;;28.59;35.60;100942.69;5003040;28;20068;-61
2022/08/09 09:59:51;;;;;;;1.65;0.30;;;;;;;28.84;34.47;100927.91;5003374;28;20049;-61
2022/08/09 10:02:17;;;;;;;2.55;0.57;;;;;;;28.91;34.36;100926.66;5000866;28;20076;-61
2022/08/09 10:04:44;;;;;;;1.52;0.52;;;;;;;28.92;35.44;100939.00;5001469;28;20021;-61
2022/08/09 10:07:39;;;;;;;3.72;0.40;;;;;;;28.92;36.50;100944.34;5003406;28;20108;-62
2022/08/09 10:10:05;;;;;;;1.87;0.50;;;;;;;28.92;36.48;100939.00;4995336;28;20042;-61
2022/08/09 10:12:35;;;;;;;2.38;0.47;;;;;;;29.01;36.42;100942.03;4986670;28;20746;-61
2022/08/09 10:15:15;;;;;;;1.77;0.32;;;;;;;29.00;35.39;100937.72;5001452;28;20037;-61
2022/08/09 10:17:46;;;;;;;1.77;0.30;;;;;;;28.86;36.06;100933.84;5005456;28;20022;-61
2022/08/09 10:20:20;;;;;;;7.03;0.50;;;;;;;28.96;36.49;100931.25;5003025;28;20027;-61
2022/08/09 10:22:49;;;;;;;0.90;0.40;;;;;;;29.16;36.91;100920.69;5005587;28;20041;-62
2022/08/09 10:25:15;;;;;;;0.60;0.30;;;;;;;29.15;36.80;100919.09;5002341;28;20489;-61
2022/08/09 10:27:42;;;;;;;1.10;0.30;;;;;;;29.01;36.53;100907.16;5005135;28;20493;-63
2022/08/09 10:30:09;;;;;;;0.57;0.30;;;;;;;29.02;34.67;100919.50;5008112;28;20025;-60
2022/08/09 10:32:35;;;;;;;1.00;0.22;;;;;;;29.09;34.99;100925.47;5002268;28;20033;-61
2022/08/09 10:35:02;;;;;;;4.60;0.40;;;;;;;29.06;35.23;100917.94;4993637;28;20041;-62
2022/08/09 10:37:28;;;;;;;3.10;0.50;;;;;;;28.93;35.06;100926.41;4996654;28;20026;-63
2022/08/09 10:39:55;;;;;;;0.90;0.30;;;;;;;28.83;36.11;100926.31;5001227;28;20469;-63
2022/08/09 10:42:21;;;;;;;1.00;0.40;;;;;;;28.95;35.59;100926.94;5008137;28;20047;-60
2022/08/09 10:44:53;;;;;;;0.70;0.30;;;;;;;28.85;35.20;100924.16;5001572;28;20422;-62
2022/08/09 10:48:01;;;;;;;1.75;0.30;;;;;;;28.77;35.82;100916.59;5003684;28;20030;-61
2022/08/09 10:53:42;;;;;;;0.82;0.30;;;;;;;28.89;37.17;100906.50;5006300;28;20141;-61
2022/08/09 10:56:16;;;;;;;0.65;0.30;;;;;;;28.90;36.14;100900.91;5008767;28;20194;-62
2022/08/09 10:58:42;;;;;;;2.50;0.40;;;;;;;28.98;37.07;100902.31;5008962;28;20069;-61
2022/08/09 11:01:33;;;;;;;1.05;0.40;;;;;;;29.23;36.22;100893.66;5010203;28;20033;-61
2022/08/09 11:04:08;;;;;;;2.08;0.57;;;;;;;29.35;37.13;100895.06;5007925;28;20127;-62
2022/08/09 11:06:36;;;;;;;1.70;0.20;;;;;;;29.39;36.19;100898.84;5006245;28;20042;-63
2022/08/09 11:09:06;;;;;;;3.28;0.30;;;;;;;29.22;35.72;100892.84;5005349;28;20382;-61
2022/08/09 11:11:57;;;;;;;3.53;0.68;;;;;;;29.34;33.41;100898.81;5003781;28;20555;-61
2022/08/09 11:14:34;;;;;;;0.88;0.40;;;;;;;29.37;34.02;100892.13;5000786;28;20094;-62
2022/08/09 11:17:01;;;;;;;1.58;0.40;;;;;;;29.36;35.73;100888.63;5001607;28;20045;-61
2022/08/09 11:19:56;;;;;;;1.17;0.32;;;;;;;29.37;35.79;100884.88;5005024;28;20036;-61
2022/08/09 11:22:45;;;;;;;0.82;0.30;;;;;;;29.31;36.04;100885.09;4996633;28;20453;-60
2022/08/09 11:25:21;;;;;;;2.15;0.30;;;;;;;29.31;36.97;100885.09;4990948;28;20050;-61
2022/08/09 11:27:49;;;;;;;3.00;0.70;;;;;;;29.15;37.31;100881.53;5003021;28;20852;-60
2022/08/09 11:30:20;;;;;;;0.82;0.40;;;;;;;29.04;36.41;100875.28;5003145;28;20022;-60
2022/08/09 11:32:49;;;;;;;2.22;0.50;;;;;;;29.01;34.59;100877.66;4995413;28;20091;-62